Time;durP1;ratioP1;P1;durP2;ratioP2;P2;SDS_P1;SDS_P2;PMS_P1;PMS_P2;Temp;Humidity;BMP_temperature;BMP_pressure;BME280_temperature;BME280_humidity;BME280_pressure;Samples;Min_cycle;Max_cycle;Signal;HPM_P1;HPM_P2
2023/05/17 00:02:02;;;;;;;7.53;5.80;;;;;;;;;;5003016;28;21268;-63
2023/05/17 00:04:27;;;;;;;6.80;5.60;;;;;;;;;;5023443;28;20044;-63
2023/05/17 00:06:52;;;;;;;6.60;5.57;;;;;;;;;;5022444;28;20268;-62
2023/05/17 00:09:18;;;;;;;7.63;5.87;;;;;;;;;;5021880;28;20502;-62
2023/05/17 00:11:43;;;;;;;7.35;5.70;;;;;;;;;;5022243;28;20316;-62
2023/05/17 00:14:08;;;;;;;7.75;6.05;;;;;;;;;;5023096;28;20087;-61
2023/05/17 00:16:33;;;;;;;7.63;5.80;;;;;;;;;;5010031;28;20194;-62
2023/05/17 00:18:59;;;;;;;6.50;5.50;;;;;;;;;;5020742;28;20808;-62
2023/05/17 00:21:24;;;;;;;8.20;6.23;;;;;;;;;;5022876;28;20824;-62
2023/05/17 00:23:50;;;;;;;8.85;5.82;;;;;;;;;;5022693;28;20368;-61
2023/05/17 00:26:15;;;;;;;5.88;5.18;;;;;;;;;;5010476;28;20025;-61
2023/05/17 00:28:40;;;;;;;7.22;5.43;;;;;;;;;;5023183;28;20053;-62
2023/05/17 00:31:05;;;;;;;7.40;5.87;;;;;;;;;;5022679;28;20017;-61
2023/05/17 00:33:31;;;;;;;7.32;5.82;;;;;;;;;;5003529;28;20364;-62
2023/05/17 00:35:56;;;;;;;6.93;5.23;;;;;;;;;;5020360;28;20036;-62
2023/05/17 00:38:21;;;;;;;5.75;4.78;;;;;;;;;;5022431;28;20029;-64
2023/05/17 00:40:47;;;;;;;6.18;5.50;;;;;;;;;;5022284;28;20025;-61
2023/05/17 00:43:13;;;;;;;6.40;5.70;;;;;;;;;;5021815;28;20419;-62
2023/05/17 00:45:38;;;;;;;6.60;5.10;;;;;;;;;;5017183;28;20029;-62
2023/05/17 00:48:03;;;;;;;7.33;5.57;;;;;;;;;;5004355;28;20037;-61
2023/05/17 00:50:28;;;;;;;6.57;5.53;;;;;;;;;;5022130;28;20023;-61
2023/05/17 00:52:54;;;;;;;6.70;6.00;;;;;;;;;;5021545;28;20121;-61
2023/05/17 00:55:19;;;;;;;6.70;5.75;;;;;;;;;;5021998;28;21093;-61
2023/05/17 00:57:45;;;;;;;7.05;5.32;;;;;;;;;;5023315;28;20108;-63
2023/05/17 01:00:10;;;;;;;6.88;5.53;;;;;;;;;;5020749;28;20068;-61
2023/05/17 01:02:35;;;;;;;7.22;5.88;;;;;;;;;;5021884;28;20034;-62
2023/05/17 01:05:01;;;;;;;6.37;5.27;;;;;;;;;;5001994;28;20097;-62
2023/05/17 01:07:26;;;;;;;5.53;4.88;;;;;;;;;;5004357;28;20101;-61
2023/05/17 01:09:51;;;;;;;6.77;5.23;;;;;;;;;;5022432;28;20374;-64
2023/05/17 01:12:31;;;;;;;6.77;5.63;;;;;;;;;;5020652;28;20718;-62
2023/05/17 01:15:03;;;;;;;5.95;5.32;;;;;;;;;;5016255;28;20111;-62
2023/05/17 01:17:45;;;;;;;6.15;5.43;;;;;;;;;;5021871;28;20030;-60
2023/05/17 01:20:20;;;;;;;6.85;5.20;;;;;;;;;;5020437;28;20060;-60
2023/05/17 01:23:00;;;;;;;6.30;5.35;;;;;;;;;;5019614;28;20041;-63
2023/05/17 01:25:27;;;;;;;5.93;5.28;;;;;;;;;;5021262;28;20510;-60
2023/05/17 01:27:53;;;;;;;6.65;5.63;;;;;;;;;;5021150;28;20087;-62
2023/05/17 01:30:18;;;;;;;7.35;5.72;;;;;;;;;;5004432;28;20092;-62
2023/05/17 01:32:43;;;;;;;8.02;5.75;;;;;;;;;;5021958;28;20042;-62
2023/05/17 01:35:09;;;;;;;6.20;5.20;;;;;;;;;;5004089;28;20037;-64
2023/05/17 01:37:34;;;;;;;6.43;5.57;;;;;;;;;;5001283;28;20037;-62
2023/05/17 01:39:59;;;;;;;6.37;5.63;;;;;;;;;;5004651;28;20053;-65
2023/05/17 01:42:28;;;;;;;6.23;5.37;;;;;;;;;;5021526;28;20171;-63
2023/05/17 01:44:57;;;;;;;6.03;5.35;;;;;;;;;;5026589;28;20086;-61
2023/05/17 01:47:34;;;;;;;5.85;5.15;;;;;;;;;;5023714;28;20081;-63
2023/05/17 01:49:59;;;;;;;6.90;6.20;;;;;;;;;;5007891;28;20053;-63
2023/05/17 01:52:30;;;;;;;6.37;5.27;;;;;;;;;;5024867;28;20040;-61
2023/05/17 01:55:09;;;;;;;6.28;5.55;;;;;;;;;;5022969;28;20303;-62
2023/05/17 01:57:35;;;;;;;6.63;5.55;;;;;;;;;;5008315;28;20060;-62
2023/05/17 02:00:02;;;;;;;6.60;5.53;;;;;;;;;;5024281;28;20068;-63
2023/05/17 02:02:27;;;;;;;7.45;5.50;;;;;;;;;;5025006;28;20049;-62
2023/05/17 02:04:53;;;;;;;6.07;5.40;;;;;;;;;;5025062;28;20107;-62
2023/05/17 02:07:18;;;;;;;6.47;5.32;;;;;;;;;;5007865;28;20113;-62
2023/05/17 02:09:44;;;;;;;6.93;5.38;;;;;;;;;;5005213;28;20125;-64
2023/05/17 02:12:10;;;;;;;5.82;5.18;;;;;;;;;;5024579;28;20034;-62
2023/05/17 02:14:35;;;;;;;6.43;5.15;;;;;;;;;;5013265;28;20041;-62
2023/05/17 02:17:00;;;;;;;5.60;4.63;;;;;;;;;;5032620;28;20483;-62
2023/05/17 02:19:25;;;;;;;6.53;5.40;;;;;;;;;;5026904;28;20319;-62
2023/05/17 02:21:51;;;;;;;6.70;5.30;;;;;;;;;;5024569;28;20430;-63
2023/05/17 02:24:16;;;;;;;5.50;4.90;;;;;;;;;;5006499;28;20327;-61
2023/05/17 02:26:42;;;;;;;7.40;5.30;;;;;;;;;;5023876;28;20284;-63
2023/05/17 02:29:08;;;;;;;6.50;5.03;;;;;;;;;;5022009;28;20051;-63
2023/05/17 02:31:33;;;;;;;6.50;5.30;;;;;;;;;;5024800;28;20045;-63
2023/05/17 02:33:58;;;;;;;5.70;5.10;;;;;;;;;;5024815;28;20033;-62
2023/05/17 02:36:24;;;;;;;5.70;4.78;;;;;;;;;;5025071;28;20040;-62
2023/05/17 02:38:49;;;;;;;6.57;5.73;;;;;;;;;;5024511;28;20762;-60
2023/05/17 02:41:14;;;;;;;6.25;5.30;;;;;;;;;;5024292;28;20288;-61
2023/05/17 02:43:40;;;;;;;6.40;5.18;;;;;;;;;;5022747;28;20053;-60
2023/05/17 02:46:05;;;;;;;5.95;5.35;;;;;;;;;;5015399;28;20546;-63
2023/05/17 02:48:30;;;;;;;6.70;5.43;;;;;;;;;;5010749;28;20130;-63
2023/05/17 02:50:56;;;;;;;6.90;5.57;;;;;;;;;;5025120;28;20354;-63
2023/05/17 02:53:21;;;;;;;6.50;5.33;;;;;;;;;;5024231;28;20331;-62
2023/05/17 02:55:46;;;;;;;5.93;4.80;;;;;;;;;;5025692;28;20280;-63
2023/05/17 02:58:11;;;;;;;5.23;4.70;;;;;;;;;;5017503;28;20044;-61
2023/05/17 03:00:36;;;;;;;5.97;5.03;;;;;;;;;;5010003;28;20331;-62
2023/05/17 03:03:02;;;;;;;5.50;4.87;;;;;;;;;;5018755;28;20332;-62
2023/05/17 03:05:27;;;;;;;6.25;5.22;;;;;;;;;;5022038;28;20034;-63
2023/05/17 03:07:52;;;;;;;5.73;5.07;;;;;;;;;;5024277;28;20072;-63
2023/05/17 03:10:17;;;;;;;6.10;4.90;;;;;;;;;;5023488;28;20288;-62
2023/05/17 03:12:43;;;;;;;7.07;5.00;;;;;;;;;;5024396;28;20824;-61
2023/05/17 03:15:08;;;;;;;5.82;5.22;;;;;;;;;;5017655;28;20339;-63
2023/05/17 03:17:34;;;;;;;5.22;4.50;;;;;;;;;;5006401;28;20053;-62
2023/05/17 03:19:59;;;;;;;6.03;5.13;;;;;;;;;;5012086;28;20078;-62
2023/05/17 03:22:24;;;;;;;5.38;4.70;;;;;;;;;;5021092;28;20351;-61
2023/05/17 03:24:49;;;;;;;5.82;4.93;;;;;;;;;;5023240;28;20037;-61
2023/05/17 03:27:15;;;;;;;6.17;4.73;;;;;;;;;;5023919;28;20543;-62
2023/05/17 03:29:40;;;;;;;5.68;4.78;;;;;;;;;;5006325;28;20724;-62
2023/05/17 03:32:06;;;;;;;6.00;5.10;;;;;;;;;;5023640;28;20044;-63
2023/05/17 03:34:31;;;;;;;6.22;4.78;;;;;;;;;;5023444;28;20327;-63
2023/05/17 03:36:56;;;;;;;5.50;4.73;;;;;;;;;;5021524;28;20033;-65
2023/05/17 03:39:21;;;;;;;6.43;5.03;;;;;;;;;;5023374;28;20387;-63
2023/05/17 03:41:47;;;;;;;6.30;4.63;;;;;;;;;;5022419;28;20057;-62
2023/05/17 03:44:12;;;;;;;6.53;4.90;;;;;;;;;;5022836;28;20823;-61
2023/05/17 03:46:37;;;;;;;6.80;4.93;;;;;;;;;;4995116;28;20618;-62
2023/05/17 03:49:02;;;;;;;5.67;4.73;;;;;;;;;;5025349;28;20618;-63
2023/05/17 03:51:27;;;;;;;5.03;4.50;;;;;;;;;;5022954;28;20280;-63
2023/05/17 03:53:56;;;;;;;5.33;4.47;;;;;;;;;;5021445;28;20080;-63
2023/05/17 03:56:21;;;;;;;5.65;4.75;;;;;;;;;;5005066;28;20055;-62
2023/05/17 03:58:47;;;;;;;5.97;5.03;;;;;;;;;;5021912;28;20107;-62
2023/05/17 04:01:12;;;;;;;6.93;5.10;;;;;;;;;;5017942;28;20187;-64
2023/05/17 04:03:38;;;;;;;6.67;5.20;;;;;;;;;;5021578;28;20288;-62
2023/05/17 04:06:06;;;;;;;6.00;5.10;;;;;;;;;;5022108;28;20283;-62
2023/05/17 04:08:32;;;;;;;6.07;4.97;;;;;;;;;;4998130;28;20060;-62
2023/05/17 04:10:57;;;;;;;7.50;5.20;;;;;;;;;;5006311;28;20024;-63
2023/05/17 04:13:23;;;;;;;5.97;4.80;;;;;;;;;;5015982;28;20021;-65
2023/05/17 04:15:48;;;;;;;5.65;4.50;;;;;;;;;;5021975;28;20303;-62
2023/05/17 04:18:13;;;;;;;5.60;4.43;;;;;;;;;;4997966;28;20796;-63
2023/05/17 04:20:38;;;;;;;6.10;4.77;;;;;;;;;;5023557;28;20317;-63
2023/05/17 04:23:04;;;;;;;6.90;4.97;;;;;;;;;;5023737;28;20313;-62
2023/05/17 04:25:29;;;;;;;6.35;4.53;;;;;;;;;;5023076;28;20033;-63
2023/05/17 04:27:55;;;;;;;6.03;4.45;;;;;;;;;;5004023;28;20171;-63
2023/05/17 04:30:22;;;;;;;5.43;4.90;;;;;;;;;;5023758;28;20029;-63
2023/05/17 04:32:49;;;;;;;6.13;5.43;;;;;;;;;;5022410;28;20938;-61
2023/05/17 04:35:14;;;;;;;6.15;4.63;;;;;;;;;;5023622;28;20025;-61
2023/05/17 04:37:39;;;;;;;6.23;4.70;;;;;;;;;;5022952;28;20182;-60
2023/05/17 04:40:05;;;;;;;6.85;4.93;;;;;;;;;;5024422;28;20280;-62
2023/05/17 04:42:31;;;;;;;5.47;4.45;;;;;;;;;;5023388;28;20040;-64
2023/05/17 04:44:56;;;;;;;4.97;4.10;;;;;;;;;;5003286;28;20108;-67
2023/05/17 04:47:21;;;;;;;5.82;4.32;;;;;;;;;;4994436;28;20268;-64
2023/05/17 04:49:47;;;;;;;6.33;4.93;;;;;;;;;;5009549;28;20084;-61
2023/05/17 04:52:12;;;;;;;4.70;4.20;;;;;;;;;;5007119;28;20776;-65
2023/05/17 04:54:38;;;;;;;4.97;4.13;;;;;;;;;;5007977;28;21106;-65
2023/05/17 04:57:03;;;;;;;6.43;4.93;;;;;;;;;;5006379;28;23601;-64
2023/05/17 04:59:28;;;;;;;5.70;4.95;;;;;;;;;;5010806;28;20049;-64
2023/05/17 05:01:53;;;;;;;5.50;4.50;;;;;;;;;;5004504;28;20053;-61
2023/05/17 05:04:19;;;;;;;5.23;4.77;;;;;;;;;;5002182;28;20049;-64
2023/05/17 05:06:44;;;;;;;6.07;4.40;;;;;;;;;;5005943;28;20389;-66
2023/05/17 05:09:09;;;;;;;6.15;5.10;;;;;;;;;;5005371;28;20038;-67
2023/05/17 05:11:35;;;;;;;5.45;4.53;;;;;;;;;;5021595;28;20072;-64
2023/05/17 05:14:00;;;;;;;4.93;4.15;;;;;;;;;;5015315;28;20044;-62
2023/05/17 05:16:25;;;;;;;5.93;4.72;;;;;;;;;;5014729;28;20116;-61
2023/05/17 05:18:51;;;;;;;5.05;4.47;;;;;;;;;;5026993;28;20091;-64
2023/05/17 05:21:16;;;;;;;5.50;4.77;;;;;;;;;;5029609;28;20030;-68
2023/05/17 05:23:41;;;;;;;7.23;4.83;;;;;;;;;;5027573;28;20816;-69
2023/05/17 05:26:06;;;;;;;5.47;4.30;;;;;;;;;;5010233;28;20864;-65
2023/05/17 05:28:32;;;;;;;5.85;5.22;;;;;;;;;;5018703;28;20029;-63
2023/05/17 05:30:58;;;;;;;4.93;4.38;;;;;;;;;;5017983;28;20033;-65
2023/05/17 05:33:24;;;;;;;5.35;4.40;;;;;;;;;;5023029;28;20033;-62
2023/05/17 05:35:49;;;;;;;5.20;4.28;;;;;;;;;;5002654;28;20052;-61
2023/05/17 05:38:14;;;;;;;5.65;4.40;;;;;;;;;;5021054;28;20057;-63
2023/05/17 05:40:41;;;;;;;5.20;4.40;;;;;;;;;;5020227;28;20046;-65
2023/05/17 05:43:06;;;;;;;6.65;4.60;;;;;;;;;;5008851;28;20049;-64
2023/05/17 05:45:31;;;;;;;5.93;4.23;;;;;;;;;;5025172;28;20025;-67
2023/05/17 05:47:56;;;;;;;5.47;4.13;;;;;;;;;;5003891;28;20033;-67
2023/05/17 05:50:21;;;;;;;5.82;4.85;;;;;;;;;;5016132;28;20797;-62
2023/05/17 05:52:47;;;;;;;5.20;4.37;;;;;;;;;;5025962;28;20488;-62
2023/05/17 05:55:12;;;;;;;5.20;4.70;;;;;;;;;;5026937;28;20499;-65
2023/05/17 05:57:37;;;;;;;5.95;4.80;;;;;;;;;;5026001;28;20029;-65
2023/05/17 06:00:03;;;;;;;6.23;4.37;;;;;;;;;;5025962;28;20238;-65
2023/05/17 06:02:29;;;;;;;6.43;4.68;;;;;;;;;;5008223;28;20310;-65
2023/05/17 06:04:54;;;;;;;7.50;5.03;;;;;;;;;;5025183;28;20069;-63
2023/05/17 06:07:19;;;;;;;6.35;4.78;;;;;;;;;;5026390;28;20087;-61
2023/05/17 06:09:45;;;;;;;5.43;4.43;;;;;;;;;;5021485;28;20418;-64
2023/05/17 06:12:10;;;;;;;5.57;4.37;;;;;;;;;;5023790;28;20606;-67
2023/05/17 06:14:38;;;;;;;5.18;4.60;;;;;;;;;;5007701;28;20287;-61
2023/05/17 06:17:03;;;;;;;5.57;4.40;;;;;;;;;;5003207;28;20045;-62
2023/05/17 06:19:28;;;;;;;6.13;4.38;;;;;;;;;;5014134;28;20077;-65
2023/05/17 06:21:54;;;;;;;5.27;4.40;;;;;;;;;;5020899;28;20092;-59
2023/05/17 06:24:19;;;;;;;5.67;4.50;;;;;;;;;;5007032;28;20296;-65
2023/05/17 06:26:45;;;;;;;6.97;5.22;;;;;;;;;;5026959;28;20095;-63
2023/05/17 06:29:11;;;;;;;7.35;5.40;;;;;;;;;;5010048;28;20088;-62
2023/05/17 06:31:36;;;;;;;9.53;5.77;;;;;;;;;;5025299;28;20108;-66
2023/05/17 06:34:01;;;;;;;8.90;5.37;;;;;;;;;;5016728;28;20284;-67
2023/05/17 06:36:26;;;;;;;7.83;5.50;;;;;;;;;;5014349;28;20272;-63
2023/05/17 06:38:52;;;;;;;7.80;5.47;;;;;;;;;;5021517;28;20284;-64
2023/05/17 06:41:17;;;;;;;7.53;5.40;;;;;;;;;;5025270;28;20088;-63
2023/05/17 06:43:42;;;;;;;10.53;5.87;;;;;;;;;;5025532;28;20353;-67
2023/05/17 06:46:07;;;;;;;8.90;5.93;;;;;;;;;;5007915;28;20757;-66
2023/05/17 06:48:33;;;;;;;10.70;5.80;;;;;;;;;;5026109;28;20276;-63
2023/05/17 06:50:58;;;;;;;8.90;5.50;;;;;;;;;;5030767;28;20311;-67
2023/05/17 06:53:23;;;;;;;9.73;6.00;;;;;;;;;;5025535;28;20045;-62
2023/05/17 06:55:48;;;;;;;9.23;5.90;;;;;;;;;;5014764;28;20041;-68
2023/05/17 06:58:14;;;;;;;9.47;5.90;;;;;;;;;;5022614;28;20539;-65
2023/05/17 07:00:39;;;;;;;9.70;6.13;;;;;;;;;;5024673;28;20268;-68
2023/05/17 07:03:04;;;;;;;8.83;6.20;;;;;;;;;;5000923;28;20308;-64
2023/05/17 07:05:29;;;;;;;8.33;6.30;;;;;;;;;;5005372;28;20757;-66
2023/05/17 07:07:55;;;;;;;10.70;6.18;;;;;;;;;;5006443;28;20280;-62
2023/05/17 07:10:20;;;;;;;9.60;5.90;;;;;;;;;;5025044;28;20056;-67
2023/05/17 07:12:46;;;;;;;9.85;6.07;;;;;;;;;;5006577;28;20140;-68
2023/05/17 07:15:11;;;;;;;10.97;6.47;;;;;;;;;;5024650;28;20116;-67
2023/05/17 07:17:36;;;;;;;7.88;5.90;;;;;;;;;;5024325;28;20334;-66
2023/05/17 07:20:02;;;;;;;10.50;6.20;;;;;;;;;;5020034;28;20049;-67
2023/05/17 07:22:27;;;;;;;9.60;6.57;;;;;;;;;;4985223;28;20807;-66
2023/05/17 07:24:52;;;;;;;11.00;6.30;;;;;;;;;;5027560;28;20147;-67
2023/05/17 07:27:18;;;;;;;12.48;6.18;;;;;;;;;;5030000;28;20032;-61
2023/05/17 07:29:43;;;;;;;11.13;6.47;;;;;;;;;;5031616;28;20096;-65
2023/05/17 07:32:08;;;;;;;7.88;5.78;;;;;;;;;;5007208;28;20272;-67
2023/05/17 07:34:34;;;;;;;12.75;7.13;;;;;;;;;;5011602;28;20466;-67
2023/05/17 07:37:00;;;;;;;10.63;6.53;;;;;;;;;;5006026;28;20068;-62
2023/05/17 07:39:25;;;;;;;10.13;6.27;;;;;;;;;;5023961;28;20069;-64
2023/05/17 07:41:50;;;;;;;10.83;6.57;;;;;;;;;;5023212;28;20303;-61
2023/05/17 07:44:15;;;;;;;12.70;7.10;;;;;;;;;;5025186;28;20033;-64
2023/05/17 07:46:40;;;;;;;10.77;6.53;;;;;;;;;;5016233;28;20486;-65
2023/05/17 07:49:06;;;;;;;10.70;6.93;;;;;;;;;;5024746;28;20575;-62
2023/05/17 07:51:31;;;;;;;9.80;6.68;;;;;;;;;;5022381;28;20329;-69
2023/05/17 07:53:56;;;;;;;12.27;6.70;;;;;;;;;;5023577;28;20033;-66
2023/05/17 07:56:22;;;;;;;10.67;6.30;;;;;;;;;;5023806;28;20068;-66
2023/05/17 07:58:47;;;;;;;10.30;6.78;;;;;;;;;;5023375;28;20954;-62
2023/05/17 08:01:12;;;;;;;10.43;6.77;;;;;;;;;;5006352;28;20045;-66
2023/05/17 08:03:38;;;;;;;10.27;6.37;;;;;;;;;;5023368;28;20724;-69
2023/05/17 08:06:03;;;;;;;9.27;6.70;;;;;;;;;;5023312;28;20395;-66
2023/05/17 08:08:29;;;;;;;12.05;7.05;;;;;;;;;;4989119;28;20172;-67
2023/05/17 08:10:54;;;;;;;12.55;6.50;;;;;;;;;;5023472;28;20117;-66
2023/05/17 08:13:19;;;;;;;9.68;6.15;;;;;;;;;;5024469;28;20059;-63
2023/05/17 08:15:44;;;;;;;10.60;6.35;;;;;;;;;;5024990;28;20034;-66
2023/05/17 08:18:10;;;;;;;11.03;7.03;;;;;;;;;;5024125;28;20053;-61
2023/05/17 08:20:35;;;;;;;10.47;6.43;;;;;;;;;;5030102;28;20291;-60
2023/05/17 08:23:00;;;;;;;11.63;6.67;;;;;;;;;;5024443;28;20670;-63
2023/05/17 08:25:25;;;;;;;8.95;5.50;;;;;;;;;;5023414;28;20315;-67
2023/05/17 08:27:51;;;;;;;9.40;6.03;;;;;;;;;;4988709;28;20108;-63
2023/05/17 08:30:16;;;;;;;10.67;6.60;;;;;;;;;;5023207;28;20029;-67
2023/05/17 08:32:43;;;;;;;13.35;6.57;;;;;;;;;;5021373;28;20272;-67
2023/05/17 08:35:09;;;;;;;10.80;6.72;;;;;;;;;;5020772;28;20037;-67
2023/05/17 08:37:34;;;;;;;10.93;6.35;;;;;;;;;;5022963;28;20472;-63
2023/05/17 08:40:00;;;;;;;13.63;6.73;;;;;;;;;;5022701;28;20072;-67
2023/05/17 08:42:25;;;;;;;10.55;7.03;;;;;;;;;;5022363;28;20311;-62
2023/05/17 08:44:51;;;;;;;10.87;6.57;;;;;;;;;;5023002;28;20518;-64
2023/05/17 08:47:36;;;;;;;9.00;6.28;;;;;;;;;;5022875;28;20276;-67
2023/05/17 08:50:04;;;;;;;9.80;6.00;;;;;;;;;;5022806;28;20022;-66
2023/05/17 08:52:32;;;;;;;9.02;6.55;;;;;;;;;;5022572;28;20048;-65
2023/05/17 08:54:59;;;;;;;10.52;6.30;;;;;;;;;;5005069;28;20048;-68
2023/05/17 08:57:25;;;;;;;10.32;6.85;;;;;;;;;;5024555;28;20030;-65
2023/05/17 08:59:50;;;;;;;9.95;6.65;;;;;;;;;;5006112;28;20040;-66
2023/05/17 09:02:16;;;;;;;11.80;6.47;;;;;;;;;;5004926;28;20048;-62
2023/05/17 09:04:41;;;;;;;11.43;6.50;;;;;;;;;;5005263;28;20120;-65
2023/05/17 09:07:07;;;;;;;9.65;6.82;;;;;;;;;;5024192;28;20342;-68
2023/05/17 09:09:32;;;;;;;12.77;6.95;;;;;;;;;;5022879;28;20523;-65
2023/05/17 09:11:58;;;;;;;9.10;6.20;;;;;;;;;;5023183;28;20026;-66
2023/05/17 09:14:24;;;;;;;10.70;6.60;;;;;;;;;;5022445;28;20049;-63
2023/05/17 09:16:54;;;;;;;9.57;6.63;;;;;;;;;;5005009;28;20162;-64
2023/05/17 09:19:20;;;;;;;9.98;6.68;;;;;;;;;;5003877;28;21161;-67
2023/05/17 09:21:46;;;;;;;10.80;6.75;;;;;;;;;;5021998;28;20089;-66
2023/05/17 09:24:11;;;;;;;9.77;6.00;;;;;;;;;;5004485;28;20422;-67
2023/05/17 09:26:44;;;;;;;10.10;6.47;;;;;;;;;;5005435;28;20040;-67
2023/05/17 09:29:09;;;;;;;10.68;6.22;;;;;;;;;;5004312;28;20805;-63
2023/05/17 09:31:34;;;;;;;12.02;6.55;;;;;;;;;;5022182;28;20022;-66
2023/05/17 09:34:00;;;;;;;10.15;6.18;;;;;;;;;;5004718;28;20052;-66
2023/05/17 09:36:26;;;;;;;8.98;6.07;;;;;;;;;;5004792;28;20068;-65
2023/05/17 09:38:53;;;;;;;12.00;6.70;;;;;;;;;;5021916;28;20195;-63
2023/05/17 09:41:19;;;;;;;11.30;6.75;;;;;;;;;;4988296;28;20030;-69
2023/05/17 09:43:44;;;;;;;11.85;6.70;;;;;;;;;;5021474;28;20132;-65
2023/05/17 09:46:10;;;;;;;10.70;6.32;;;;;;;;;;5005274;28;20045;-62
2023/05/17 09:48:36;;;;;;;10.50;6.13;;;;;;;;;;5022454;28;20041;-63
2023/05/17 09:51:02;;;;;;;9.45;6.10;;;;;;;;;;5026929;28;20141;-69
2023/05/17 09:53:31;;;;;;;10.27;6.63;;;;;;;;;;5022383;28;20034;-67
2023/05/17 09:55:57;;;;;;;10.85;6.75;;;;;;;;;;5004281;28;20049;-64
2023/05/17 09:58:22;;;;;;;8.60;5.65;;;;;;;;;;5004130;28;20085;-67
2023/05/17 10:00:56;;;;;;;10.17;6.57;;;;;;;;;;5004354;28;20076;-62
2023/05/17 10:03:22;;;;;;;11.35;6.30;;;;;;;;;;5003926;28;20296;-67
2023/05/17 10:05:49;;;;;;;10.73;7.07;;;;;;;;;;5023565;28;20400;-64
2023/05/17 10:08:14;;;;;;;11.80;6.25;;;;;;;;;;5026023;28;20079;-68
2023/05/17 10:10:40;;;;;;;12.10;6.28;;;;;;;;;;5008146;28;20045;-65
2023/05/17 10:13:05;;;;;;;11.23;6.00;;;;;;;;;;5007906;28;20168;-61
2023/05/17 10:15:31;;;;;;;10.27;6.13;;;;;;;;;;5027067;28;20076;-66
2023/05/17 10:17:56;;;;;;;12.63;6.60;;;;;;;;;;5027108;28;20292;-67
2023/05/17 10:20:22;;;;;;;9.38;6.00;;;;;;;;;;5029714;28;20059;-64
2023/05/17 10:22:47;;;;;;;10.95;6.30;;;;;;;;;;5029917;28;20059;-66
2023/05/17 10:25:13;;;;;;;12.87;6.17;;;;;;;;;;5026022;28;20121;-65
2023/05/17 10:27:38;;;;;;;9.40;6.10;;;;;;;;;;5026234;28;20334;-67
2023/05/17 10:30:04;;;;;;;10.73;5.93;;;;;;;;;;5025209;28;20511;-66
2023/05/17 10:32:29;;;;;;;11.70;6.03;;;;;;;;;;5025009;28;20277;-66
2023/05/17 10:34:54;;;;;;;11.23;6.38;;;;;;;;;;5007227;28;20098;-65
2023/05/17 10:37:20;;;;;;;9.18;5.50;;;;;;;;;;5023888;28;20053;-65
2023/05/17 10:39:45;;;;;;;11.75;6.13;;;;;;;;;;5023776;28;20043;-59
2023/05/17 10:42:11;;;;;;;10.13;5.93;;;;;;;;;;5008914;28;20472;-66
2023/05/17 10:44:36;;;;;;;9.60;6.03;;;;;;;;;;5026240;28;20116;-65
2023/05/17 10:47:02;;;;;;;9.90;6.18;;;;;;;;;;5026339;28;20068;-69
2023/05/17 10:49:28;;;;;;;10.05;5.53;;;;;;;;;;4991296;28;20064;-67
2023/05/17 10:51:53;;;;;;;9.65;5.78;;;;;;;;;;5025361;28;20491;-67
2023/05/17 10:54:19;;;;;;;9.13;5.63;;;;;;;;;;5008093;28;20045;-63
2023/05/17 10:56:48;;;;;;;11.00;6.47;;;;;;;;;;5009911;28;20036;-62
2023/05/17 10:59:13;;;;;;;10.40;6.07;;;;;;;;;;4990005;28;20041;-69
2023/05/17 11:01:49;;;;;;;9.17;6.03;;;;;;;;;;5025469;28;20132;-69
2023/05/17 11:04:22;;;;;;;11.55;6.40;;;;;;;;;;4990562;28;20053;-65
2023/05/17 11:06:47;;;;;;;10.25;5.57;;;;;;;;;;5012688;28;20126;-62
2023/05/17 11:09:14;;;;;;;10.93;5.63;;;;;;;;;;5025824;28;20076;-68
2023/05/17 11:11:56;;;;;;;11.02;5.93;;;;;;;;;;5024745;28;21804;-63
2023/05/17 11:14:21;;;;;;;9.93;5.63;;;;;;;;;;4990600;28;20052;-69
2023/05/17 11:16:47;;;;;;;13.30;6.78;;;;;;;;;;5004125;28;20491;-68
2023/05/17 11:19:12;;;;;;;11.10;5.90;;;;;;;;;;5002972;28;20804;-61
2023/05/17 11:21:47;;;;;;;13.33;5.90;;;;;;;;;;5030402;28;20557;-65
2023/05/17 11:24:13;;;;;;;12.52;6.28;;;;;;;;;;4992785;28;20093;-64
2023/05/17 11:26:38;;;;;;;9.82;5.80;;;;;;;;;;4998971;28;20120;-65
2023/05/17 11:29:05;;;;;;;9.82;5.95;;;;;;;;;;5011239;28;20053;-65
2023/05/17 11:31:34;;;;;;;11.50;6.22;;;;;;;;;;5009312;28;20144;-62
2023/05/17 11:34:00;;;;;;;11.90;6.37;;;;;;;;;;5010542;28;20447;-64
2023/05/17 11:36:25;;;;;;;11.98;6.00;;;;;;;;;;5026097;28;20037;-65
2023/05/17 11:39:11;;;;;;;9.93;5.88;;;;;;;;;;5028737;28;20478;-62
2023/05/17 11:41:37;;;;;;;10.15;6.15;;;;;;;;;;5006392;28;20029;-61
2023/05/17 11:44:02;;;;;;;11.70;6.25;;;;;;;;;;5026858;28;20144;-68
2023/05/17 11:46:28;;;;;;;10.85;6.10;;;;;;;;;;5025211;28;20025;-66
2023/05/17 11:48:53;;;;;;;12.83;6.43;;;;;;;;;;5026182;28;20128;-66
2023/05/17 11:51:18;;;;;;;10.75;6.57;;;;;;;;;;5008853;28;20729;-63
2023/05/17 11:53:45;;;;;;;12.50;6.35;;;;;;;;;;5024271;28;20041;-63
2023/05/17 11:56:11;;;;;;;10.10;6.30;;;;;;;;;;4998951;28;20053;-68
2023/05/17 11:58:36;;;;;;;12.10;6.30;;;;;;;;;;5008587;28;20101;-65
2023/05/17 12:01:03;;;;;;;12.10;6.35;;;;;;;;;;5024521;28;20037;-64
2023/05/17 12:03:28;;;;;;;14.23;6.90;;;;;;;;;;5022983;28;20034;-66
2023/05/17 12:06:08;;;;;;;9.95;6.32;;;;;;;;;;5023706;28;20033;-67
2023/05/17 12:08:33;;;;;;;9.38;6.13;;;;;;;;;;5011189;28;20063;-62
2023/05/17 12:10:59;;;;;;;12.10;6.38;;;;;;;;;;5021557;28;20364;-67
2023/05/17 12:13:26;;;;;;;10.57;6.22;;;;;;;;;;5005716;28;20040;-65
2023/05/17 12:15:56;;;;;;;11.48;6.38;;;;;;;;;;5005172;28;20033;-67
2023/05/17 12:18:21;;;;;;;11.07;5.85;;;;;;;;;;5008056;28;20129;-69
2023/05/17 12:20:56;;;;;;;9.13;6.10;;;;;;;;;;5025119;28;20137;-68
2023/05/17 12:23:28;;;;;;;10.55;6.18;;;;;;;;;;4991739;28;20323;-68
2023/05/17 12:26:03;;;;;;;10.45;5.72;;;;;;;;;;5031196;28;20091;-66
2023/05/17 12:28:28;;;;;;;9.77;5.65;;;;;;;;;;5019182;28;20029;-63
2023/05/17 12:30:54;;;;;;;10.35;6.00;;;;;;;;;;4994609;28;20040;-68
2023/05/17 12:33:19;;;;;;;9.95;5.80;;;;;;;;;;5007772;28;20471;-66
2023/05/17 12:35:45;;;;;;;11.60;6.23;;;;;;;;;;5019466;28;20026;-65
2023/05/17 12:38:10;;;;;;;10.20;5.50;;;;;;;;;;5024171;28;20347;-67
2023/05/17 12:40:36;;;;;;;10.48;5.72;;;;;;;;;;5026261;28;20029;-63
2023/05/17 12:43:02;;;;;;;10.45;5.93;;;;;;;;;;5008419;28;20047;-68
2023/05/17 12:45:27;;;;;;;10.60;5.78;;;;;;;;;;5024915;28;20514;-68
2023/05/17 12:47:53;;;;;;;9.90;5.40;;;;;;;;;;5026044;28;20037;-68
2023/05/17 12:50:25;;;;;;;11.93;6.17;;;;;;;;;;5027671;28;20416;-70
2023/05/17 12:52:50;;;;;;;10.07;6.82;;;;;;;;;;5025941;28;20272;-67
2023/05/17 12:55:15;;;;;;;10.65;6.07;;;;;;;;;;5011993;28;20041;-62
2023/05/17 12:57:47;;;;;;;11.23;6.20;;;;;;;;;;5032818;28;20061;-67
2023/05/17 13:00:13;;;;;;;9.68;6.07;;;;;;;;;;5026077;28;20112;-66
2023/05/17 13:02:40;;;;;;;14.20;6.43;;;;;;;;;;5023071;28;20172;-69
2023/05/17 13:05:14;;;;;;;9.93;6.38;;;;;;;;;;5023040;28;20153;-64
2023/05/17 13:07:39;;;;;;;10.75;6.05;;;;;;;;;;5005867;28;20123;-67
2023/05/17 13:10:05;;;;;;;9.68;5.80;;;;;;;;;;5005896;28;20076;-69
2023/05/17 13:12:30;;;;;;;11.70;5.93;;;;;;;;;;5023960;28;20056;-64
2023/05/17 13:14:55;;;;;;;8.07;5.27;;;;;;;;;;5028507;28;20021;-65
2023/05/17 13:17:25;;;;;;;10.53;5.77;;;;;;;;;;5026135;28;20299;-65
2023/05/17 13:19:50;;;;;;;12.57;6.23;;;;;;;;;;5010628;28;20350;-65
2023/05/17 13:22:15;;;;;;;9.38;6.10;;;;;;;;;;5005571;28;20046;-62
2023/05/17 13:24:41;;;;;;;10.77;5.40;;;;;;;;;;5022701;28;20113;-66
2023/05/17 13:27:06;;;;;;;10.20;5.53;;;;;;;;;;5022586;28;20343;-60
2023/05/17 13:29:32;;;;;;;9.77;5.70;;;;;;;;;;4988156;28;20541;-66
2023/05/17 13:31:57;;;;;;;9.68;5.68;;;;;;;;;;5021013;28;20049;-67
2023/05/17 13:34:23;;;;;;;10.83;5.90;;;;;;;;;;5022277;28;20034;-67
2023/05/17 13:36:48;;;;;;;10.10;5.78;;;;;;;;;;5022027;28;20733;-63
2023/05/17 13:39:14;;;;;;;10.48;6.25;;;;;;;;;;5023180;28;20091;-62
2023/05/17 13:41:39;;;;;;;8.27;5.30;;;;;;;;;;5008639;28;20045;-67
2023/05/17 13:44:05;;;;;;;7.38;5.22;;;;;;;;;;5025765;28;20578;-64
2023/05/17 13:46:30;;;;;;;9.60;5.68;;;;;;;;;;5008796;28;20418;-64
2023/05/17 13:48:56;;;;;;;9.85;5.93;;;;;;;;;;5025816;28;20044;-66
2023/05/17 13:51:21;;;;;;;11.50;6.07;;;;;;;;;;5024391;28;20125;-67
2023/05/17 13:53:46;;;;;;;8.75;5.35;;;;;;;;;;5007972;28;20056;-65
2023/05/17 13:56:12;;;;;;;9.90;5.70;;;;;;;;;;5025927;28;20061;-65
2023/05/17 13:58:37;;;;;;;7.27;4.70;;;;;;;;;;5007961;28;20025;-67
2023/05/17 14:01:02;;;;;;;10.00;5.50;;;;;;;;;;5025144;28;20349;-68
2023/05/17 14:03:27;;;;;;;8.47;5.10;;;;;;;;;;5023908;28;20361;-65
2023/05/17 14:05:53;;;;;;;10.90;5.53;;;;;;;;;;5024840;28;20811;-67
2023/05/17 14:08:18;;;;;;;9.80;5.00;;;;;;;;;;5025717;28;20500;-66
2023/05/17 14:10:44;;;;;;;9.82;5.20;;;;;;;;;;5008730;28;20060;-63
2023/05/17 14:13:10;;;;;;;12.32;5.22;;;;;;;;;;4993743;28;20046;-67
2023/05/17 14:15:37;;;;;;;10.20;5.13;;;;;;;;;;5008202;28;20064;-65
2023/05/17 14:18:03;;;;;;;8.73;5.13;;;;;;;;;;4992243;28;20121;-67
2023/05/17 14:20:29;;;;;;;8.45;4.90;;;;;;;;;;5012364;28;20545;-64
2023/05/17 14:22:54;;;;;;;9.07;4.85;;;;;;;;;;5028919;28;20053;-63
2023/05/17 14:25:20;;;;;;;11.25;4.53;;;;;;;;;;5008026;28;20492;-66
2023/05/17 14:27:45;;;;;;;7.57;5.22;;;;;;;;;;5007930;28;20052;-67
2023/05/17 14:30:11;;;;;;;9.60;4.88;;;;;;;;;;5026103;28;20611;-64
2023/05/17 14:32:37;;;;;;;7.47;4.95;;;;;;;;;;5025119;28;20112;-66